Time;durP1;ratioP1;P1;durP2;ratioP2;P2;SDS_P1;SDS_P2;PMS_P1;PMS_P2;Temp;Humidity;BMP_temperature;BMP_pressure;BME280_temperature;BME280_humidity;BME280_pressure;Samples;Min_cycle;Max_cycle;Signal;HPM_P1;HPM_P2
2022/01/18 00:04:22;;;;;;;17.08;2.22;;;5.50;99.90;;;;;;12385910;28;20046;-85
2022/01/18 00:10:27;;;;;;;16.98;1.90;;;5.50;99.90;;;;;;12380305;28;20045;-86
2022/01/18 00:16:59;;;;;;;11.23;1.90;;;5.50;99.90;;;;;;12385963;28;20085;-87
2022/01/18 00:23:00;;;;;;;13.02;1.95;;;5.40;99.90;;;;;;12395572;28;20054;-86
2022/01/18 00:29:10;;;;;;;9.25;2.15;;;5.40;99.90;;;;;;12382174;28;20050;-87
2022/01/18 00:35:12;;;;;;;11.63;1.98;;;5.30;99.90;;;;;;12392722;28;20113;-86
2022/01/18 00:41:17;;;;;;;16.00;2.25;;;5.30;99.90;;;;;;12398729;28;20413;-85
2022/01/18 00:47:20;;;;;;;17.23;2.05;;;5.30;99.90;;;;;;12400709;28;21623;-85
2022/01/18 00:53:22;;;;;;;14.13;1.80;;;5.30;99.90;;;;;;12417716;28;20049;-86
2022/01/18 00:59:24;;;;;;;12.80;1.77;;;5.30;99.90;;;;;;12398271;28;20102;-87
2022/01/18 01:05:26;;;;;;;18.60;1.83;;;5.30;99.90;;;;;;12418213;28;20517;-86
2022/01/18 01:11:28;;;;;;;17.02;1.88;;;5.30;99.90;;;;;;12395251;28;20190;-87
2022/01/18 01:17:52;;;;;;;15.25;2.13;;;5.30;99.90;;;;;;12415675;28;20061;-85
2022/01/18 01:36:50;;;;;;;14.98;1.92;;;5.40;99.90;;;;;;12402614;28;20510;-85
2022/01/18 01:43:10;;;;;;;11.98;2.08;;;5.40;99.90;;;;;;12391919;28;20078;-85
2022/01/18 01:49:14;;;;;;;14.23;2.03;;;5.40;99.90;;;;;;12385437;28;20046;-86
2022/01/18 01:55:18;;;;;;;9.90;1.90;;;5.40;99.90;;;;;;12383457;28;20164;-86
2022/01/18 02:01:20;;;;;;;11.93;1.70;;;5.40;99.90;;;;;;12378220;28;20169;-85
2022/01/18 02:07:22;;;;;;;8.00;1.50;;;5.40;99.90;;;;;;12376534;28;20351;-85
2022/01/18 02:13:24;;;;;;;12.40;1.50;;;5.50;99.90;;;;;;12379624;28;20708;-86
2022/01/18 02:25:48;;;;;;;14.20;1.52;;;5.40;99.90;;;;;;12386783;28;20682;-86
2022/01/18 02:31:51;;;;;;;10.50;1.75;;;5.30;99.90;;;;;;12385977;28;20184;-85
2022/01/18 02:37:54;;;;;;;7.95;1.55;;;5.30;99.90;;;;;;12390756;28;20060;-86
2022/01/18 02:44:08;;;;;;;12.48;2.00;;;5.30;99.90;;;;;;12367956;28;20499;-86
2022/01/18 02:50:10;;;;;;;10.80;2.08;;;5.30;99.90;;;;;;12365222;28;20542;-87
2022/01/18 02:56:12;;;;;;;11.40;2.45;;;5.40;99.90;;;;;;12377281;28;20057;-85
2022/01/18 03:08:44;;;;;;;19.58;5.15;;;5.30;99.90;;;;;;12396284;28;20586;-86
2022/01/18 03:14:47;;;;;;;12.02;2.92;;;5.30;99.90;;;;;;12378497;28;20446;-87
2022/01/18 03:20:49;;;;;;;14.05;2.92;;;5.30;99.90;;;;;;12384186;28;20042;-86
2022/01/18 03:33:15;;;;;;;12.98;3.05;;;5.30;99.90;;;;;;12393706;28;20104;-85
2022/01/18 03:39:17;;;;;;;;;;;5.40;99.90;;;;;;12379061;28;20057;-85
2022/01/18 03:45:27;;;;;;;9.77;3.40;;;5.40;99.90;;;;;;12378338;28;20477;-87
2022/01/18 03:51:29;;;;;;;9.80;3.75;;;5.40;99.90;;;;;;12374409;28;20133;-85
2022/01/18 03:57:31;;;;;;;13.73;3.50;;;5.50;99.90;;;;;;12396880;28;20535;-87
2022/01/18 04:03:33;;;;;;;13.32;4.28;;;5.40;99.90;;;;;;12396035;28;20176;-86
2022/01/18 04:09:36;;;;;;;14.55;5.50;;;5.50;99.90;;;;;;12388760;28;20054;-86
2022/01/18 04:15:37;;;;;;;19.92;5.40;;;5.40;99.90;;;;;;12379324;28;20058;-87
2022/01/18 04:28:08;;;;;;;20.67;6.78;;;5.40;99.90;;;;;;12387565;28;20041;-87
2022/01/18 04:34:10;;;;;;;22.25;6.47;;;5.40;99.90;;;;;;12403987;28;20046;-86
2022/01/18 04:40:16;;;;;;;16.77;6.20;;;5.50;99.90;;;;;;12402077;28;20142;-86
2022/01/18 04:52:38;;;;;;;14.93;7.10;;;5.50;99.90;;;;;;12399189;28;20129;-85
2022/01/18 04:58:40;;;;;;;20.15;8.02;;;5.40;99.90;;;;;;12389264;28;20644;-86
2022/01/18 05:04:43;;;;;;;19.17;7.47;;;5.50;99.90;;;;;;12382880;28;20084;-85
2022/01/18 05:10:51;;;;;;;19.55;8.13;;;5.50;99.90;;;;;;12405151;28;20046;-87
2022/01/18 05:17:34;;;;;;;17.27;7.95;;;5.50;99.90;;;;;;12383244;28;20065;-86
2022/01/18 05:23:19;;;;;;;21.63;8.60;;;5.50;99.90;;;;;;12406287;28;20486;-87
2022/01/18 05:29:22;;;;;;;20.90;8.35;;;5.50;99.90;;;;;;12415874;28;20150;-87
2022/01/18 05:35:24;;;;;;;29.05;8.15;;;5.50;99.90;;;;;;12399264;28;20635;-86
2022/01/18 05:41:26;;;;;;;21.27;8.35;;;5.50;99.90;;;;;;12399526;28;20145;-85
2022/01/18 05:47:28;;;;;;;23.73;8.00;;;5.50;99.90;;;;;;12415090;28;20046;-87
2022/01/18 05:53:32;;;;;;;21.88;9.38;;;5.50;99.90;;;;;;12389944;28;20046;-86
2022/01/18 05:59:35;;;;;;;26.00;9.38;;;5.50;99.90;;;;;;12392560;28;20154;-86
2022/01/18 06:11:59;;;;;;;24.60;9.35;;;5.50;99.90;;;;;;12403390;28;20073;-86
2022/01/18 06:18:01;;;;;;;27.40;9.80;;;5.50;99.90;;;;;;12405257;28;20042;-86
2022/01/18 06:24:04;;;;;;;26.60;10.10;;;5.50;99.90;;;;;;12382837;28;20063;-86
2022/01/18 06:30:09;;;;;;;27.27;10.57;;;5.50;99.90;;;;;;12369671;28;20045;-86
2022/01/18 06:36:11;;;;;;;45.03;12.60;;;5.60;99.90;;;;;;12373449;28;20097;-87
2022/01/18 06:42:14;;;;;;;36.60;12.20;;;5.60;99.90;;;;;;12379732;28;20054;-86
2022/01/18 06:48:16;;;;;;;38.78;13.35;;;5.70;99.90;;;;;;12385086;28;20054;-87
2022/01/18 06:54:18;;;;;;;32.50;12.07;;;5.60;99.90;;;;;;12377222;28;20462;-87
2022/01/18 07:00:20;;;;;;;41.17;12.60;;;5.60;99.90;;;;;;12388037;28;20161;-87
2022/01/18 07:06:22;;;;;;;39.70;13.32;;;5.70;99.90;;;;;;12378193;28;20141;-87
2022/01/18 07:12:25;;;;;;;49.30;14.07;;;5.70;99.90;;;;;;12395510;28;20923;-86
2022/01/18 07:18:27;;;;;;;51.78;14.10;;;5.70;99.90;;;;;;12384940;28;20486;-87
2022/01/18 07:24:42;;;;;;;54.50;14.55;;;5.60;99.90;;;;;;12377721;28;20152;-86
2022/01/18 07:30:46;;;;;;;49.08;14.55;;;5.60;99.90;;;;;;12379344;28;20061;-86
2022/01/18 07:36:48;;;;;;;41.30;14.35;;;5.60;99.90;;;;;;12380250;28;20053;-86
2022/01/18 07:42:49;;;;;;;51.28;14.75;;;5.70;99.90;;;;;;12390506;28;20050;-86
2022/01/18 07:48:54;;;;;;;49.97;14.57;;;5.70;99.90;;;;;;12373822;28;20057;-85
2022/01/18 07:54:57;;;;;;;54.72;15.48;;;5.70;99.90;;;;;;12386296;28;20050;-85
2022/01/18 08:01:00;;;;;;;45.60;14.10;;;5.60;99.90;;;;;;12370762;28;20041;-86
2022/01/18 08:07:03;;;;;;;54.22;14.77;;;5.60;99.90;;;;;;12374849;28;20145;-86
2022/01/18 08:13:05;;;;;;;51.83;14.30;;;5.70;99.90;;;;;;12373142;28;20042;-86
2022/01/18 08:19:07;;;;;;;39.67;11.57;;;5.70;99.90;;;;;;12370635;28;20085;-86
2022/01/18 08:25:12;;;;;;;41.78;12.18;;;5.80;99.90;;;;;;12375654;28;20042;-86
2022/01/18 08:31:14;;;;;;;;;;;5.80;99.90;;;;;;12371721;28;20042;-86
2022/01/18 08:37:16;;;;;;;40.90;11.25;;;5.80;99.90;;;;;;12366055;28;20401;-85
2022/01/18 08:43:18;;;;;;;49.83;11.55;;;5.80;99.90;;;;;;12386242;28;20049;-86
2022/01/18 08:49:19;;;;;;;42.72;10.73;;;5.80;99.90;;;;;;12392918;28;20046;-87
2022/01/18 08:55:21;;;;;;;39.25;11.02;;;5.90;99.90;;;;;;12423039;28;20076;-86
2022/01/18 09:01:23;;;;;;;34.78;11.20;;;5.90;99.90;;;;;;12387012;28;20050;-85
2022/01/18 09:07:25;;;;;;;40.42;10.48;;;5.90;99.90;;;;;;12380514;28;20057;-86
2022/01/18 09:13:28;;;;;;;39.13;11.45;;;5.90;99.90;;;;;;12385938;28;20046;-86
2022/01/18 09:19:30;;;;;;;48.05;10.52;;;6.00;99.90;;;;;;12387618;28;20076;-86
2022/01/18 09:25:33;;;;;;;39.60;8.70;;;6.00;99.90;;;;;;12381194;28;20042;-86
2022/01/18 09:31:36;;;;;;;47.90;8.75;;;6.10;99.90;;;;;;12397239;28;20478;-87
2022/01/18 09:37:38;;;;;;;35.63;8.37;;;6.10;99.90;;;;;;12370922;28;20058;-87
2022/01/18 09:43:41;;;;;;;33.90;8.25;;;6.10;99.90;;;;;;12384350;28;20082;-87
2022/01/18 09:49:43;;;;;;;30.17;7.38;;;6.10;99.90;;;;;;12374012;28;20046;-87
2022/01/18 09:55:48;;;;;;;41.22;6.90;;;6.10;99.90;;;;;;12390558;28;20566;-87
2022/01/18 10:01:51;;;;;;;36.97;5.55;;;6.10;99.90;;;;;;12372370;28;20133;-86
2022/01/18 10:07:56;;;;;;;34.47;6.00;;;6.20;99.90;;;;;;12378032;28;20046;-87
2022/01/18 10:13:57;;;;;;;38.80;6.03;;;6.30;99.90;;;;;;12361073;28;20498;-87
2022/01/18 10:20:09;;;;;;;29.95;5.72;;;6.30;99.90;;;;;;12379091;28;20178;-87
2022/01/18 10:26:23;;;;;;;30.70;5.00;;;6.40;99.90;;;;;;12382674;28;20069;-87
2022/01/18 10:32:35;;;;;;;34.67;5.50;;;6.40;99.90;;;;;;12363156;28;20125;-87
2022/01/18 10:38:45;;;;;;;25.88;5.00;;;6.40;99.90;;;;;;12368118;28;20152;-88
2022/01/18 10:44:56;;;;;;;29.60;5.22;;;6.50;99.90;;;;;;12366592;28;20054;-88
2022/01/18 10:50:58;;;;;;;24.08;5.32;;;6.60;99.90;;;;;;12361601;28;20050;-87
2022/01/18 10:57:06;;;;;;;30.15;7.53;;;6.50;99.90;;;;;;12373773;28;20503;-87
2022/01/18 11:03:09;;;;;;;35.80;8.20;;;6.50;99.90;;;;;;12393013;28;20045;-86
2022/01/18 11:09:15;;;;;;;33.53;7.43;;;6.50;99.90;;;;;;12375237;28;20056;-88
2022/01/18 11:15:21;;;;;;;30.55;7.05;;;6.50;99.90;;;;;;12389532;28;20126;-87
2022/01/18 11:21:24;;;;;;;32.63;6.10;;;6.60;99.90;;;;;;12372235;28;20081;-86
2022/01/18 11:27:29;;;;;;;22.47;5.73;;;6.70;99.90;;;;;;12375900;28;20084;-86
2022/01/18 11:33:34;;;;;;;29.30;5.50;;;6.80;99.90;;;;;;12391417;28;20061;-88
2022/01/18 11:39:36;;;;;;;24.85;4.78;;;6.90;99.90;;;;;;12404439;28;20083;-88
2022/01/18 11:45:43;;;;;;;21.27;4.40;;;6.90;99.90;;;;;;12391316;28;20049;-87
2022/01/18 11:51:49;;;;;;;18.20;4.13;;;6.90;99.90;;;;;;12379373;28;20042;-87
2022/01/18 11:57:51;;;;;;;21.30;4.53;;;6.90;99.90;;;;;;12375067;28;20154;-87
2022/01/18 12:03:55;;;;;;;21.38;4.30;;;7.10;99.90;;;;;;12379126;28;20946;-87
2022/01/18 12:09:57;;;;;;;18.77;3.63;;;7.20;99.90;;;;;;12391122;28;20061;-87
2022/01/18 12:16:02;;;;;;;14.50;3.97;;;7.50;99.90;;;;;;12382519;28;20522;-87
2022/01/18 12:22:04;;;;;;;20.50;4.30;;;7.50;99.90;;;;;;12387136;28;20058;-87
2022/01/18 12:34:51;;;;;;;18.77;3.22;;;7.50;99.90;;;;;;12384112;28;20473;-87
2022/01/18 12:40:54;;;;;;;19.88;4.07;;;7.30;99.90;;;;;;12391245;28;20995;-86
2022/01/18 12:46:58;;;;;;;15.77;3.07;;;7.40;99.90;;;;;;12371577;28;20074;-86
2022/01/18 12:53:07;;;;;;;18.33;3.60;;;7.30;99.90;;;;;;12363545;28;20052;-87
2022/01/18 12:59:08;;;;;;;12.80;2.10;;;7.40;99.90;;;;;;12372365;28;20149;-87
2022/01/18 13:05:14;;;;;;;16.83;3.45;;;7.30;99.90;;;;;;12386973;28;20056;-87
2022/01/18 13:11:18;;;;;;;15.00;2.97;;;7.30;99.90;;;;;;12406339;28;20098;-86
2022/01/18 13:24:27;;;;;;;11.63;2.78;;;7.40;99.90;;;;;;12396029;28;20004;-87
2022/01/18 13:30:28;;;;;;;13.60;3.00;;;7.40;99.90;;;;;;12396381;28;20050;-86
2022/01/18 13:36:32;;;;;;;12.82;2.50;;;7.30;99.90;;;;;;12402508;28;20088;-86
2022/01/18 13:42:38;;;;;;;11.38;2.67;;;7.30;99.90;;;;;;12428640;28;20064;-87
2022/01/18 13:48:41;;;;;;;12.10;2.85;;;7.10;99.90;;;;;;12401248;28;20060;-87
2022/01/18 13:54:46;;;;;;;13.57;2.70;;;7.10;99.90;;;;;;12392428;28;20073;-87
2022/01/18 14:00:49;;;;;;;10.40;2.70;;;7.20;99.90;;;;;;12350276;28;20093;-86
2022/01/18 14:06:53;;;;;;;10.20;3.00;;;7.10;99.90;;;;;;12348206;28;20057;-85
2022/01/18 14:12:55;;;;;;;;;;;7.10;99.90;;;;;;12353769;28;20073;-87
2022/01/18 14:19:06;;;;;;;10.70;3.03;;;7.10;99.90;;;;;;12350099;28;20657;-87
2022/01/18 14:25:08;;;;;;;12.82;3.13;;;7.10;99.90;;;;;;12331691;28;20852;-85
2022/01/18 14:31:10;;;;;;;17.20;3.60;;;7.20;99.90;;;;;;12334881;28;20050;-86
2022/01/18 14:37:13;;;;;;;12.23;3.10;;;7.20;99.90;;;;;;12321019;28;20054;-86
2022/01/18 14:43:31;;;;;;;10.25;2.95;;;7.20;99.90;;;;;;12321967;28;20169;-85
2022/01/18 14:49:33;;;;;;;11.63;3.38;;;7.10;99.90;;;;;;12335500;28;20936;-86
2022/01/18 14:55:36;;;;;;;16.25;5.18;;;7.00;99.90;;;;;;12336064;28;20059;-86
2022/01/18 15:01:40;;;;;;;12.50;3.78;;;7.00;99.90;;;;;;12340227;28;20046;-86
2022/01/18 15:07:43;;;;;;;15.13;3.33;;;6.90;99.90;;;;;;12335550;28;20276;-85
2022/01/18 15:13:45;;;;;;;14.77;3.45;;;6.90;99.90;;;;;;12345366;28;20093;-86
2022/01/18 15:19:47;;;;;;;13.43;3.92;;;6.90;99.90;;;;;;12337375;28;20089;-86
2022/01/18 15:25:48;;;;;;;10.95;3.35;;;6.80;99.90;;;;;;12342182;28;20053;-86
2022/01/18 15:31:50;;;;;;;18.60;4.53;;;6.80;99.90;;;;;;12344605;28;20054;-86
2022/01/18 15:37:53;;;;;;;17.67;5.90;;;6.70;99.90;;;;;;12340579;28;20118;-86
2022/01/18 15:43:55;;;;;;;24.38;4.85;;;6.60;99.90;;;;;;12327275;28;20440;-87
2022/01/18 15:49:57;;;;;;;19.98;4.63;;;6.50;99.90;;;;;;12336443;28;20042;-87
2022/01/18 15:55:58;;;;;;;16.13;3.83;;;6.50;99.90;;;;;;12315189;28;20049;-86
2022/01/18 16:02:00;;;;;;;19.98;3.45;;;6.50;99.90;;;;;;12377849;28;20061;-87
2022/01/18 16:08:06;;;;;;;18.52;3.88;;;6.50;99.90;;;;;;12371302;28;20042;-86
2022/01/18 16:14:08;;;;;;;14.00;4.22;;;6.40;99.90;;;;;;12388736;28;20070;-86
2022/01/18 16:20:10;;;;;;;16.27;4.07;;;6.40;99.90;;;;;;12381366;28;20048;-86
2022/01/18 16:26:13;;;;;;;15.43;4.43;;;6.40;99.90;;;;;;12375183;28;22526;-85
2022/01/18 16:32:15;;;;;;;19.65;4.40;;;6.30;99.90;;;;;;12387775;28;20115;-86
2022/01/18 16:38:17;;;;;;;21.00;5.03;;;6.30;99.90;;;;;;12411052;28;20045;-86
2022/01/18 16:44:19;;;;;;;16.05;4.65;;;6.20;99.90;;;;;;12412930;28;20042;-86
2022/01/18 16:50:22;;;;;;;22.20;5.75;;;6.10;99.90;;;;;;12401558;28;20061;-86
2022/01/18 16:56:24;;;;;;;13.52;5.47;;;6.20;99.90;;;;;;12426795;28;20065;-87
2022/01/18 17:02:26;;;;;;;15.23;4.95;;;6.20;99.90;;;;;;12413981;28;20046;-86
2022/01/18 17:08:29;;;;;;;17.95;5.75;;;6.20;99.90;;;;;;12401906;28;20085;-85
2022/01/18 17:14:31;;;;;;;19.38;5.20;;;6.10;99.90;;;;;;12380273;28;20061;-86
2022/01/18 17:20:33;;;;;;;16.40;4.90;;;6.10;99.90;;;;;;12381825;28;20484;-85
2022/01/18 17:26:34;;;;;;;20.75;5.45;;;6.10;99.90;;;;;;12385787;28;20131;-85
2022/01/18 17:32:36;;;;;;;21.95;4.68;;;6.10;99.90;;;;;;12391680;28;20460;-86
2022/01/18 17:38:40;;;;;;;21.52;4.70;;;6.10;99.90;;;;;;12397402;28;20137;-86
2022/01/18 17:44:44;;;;;;;17.38;4.88;;;6.10;99.90;;;;;;12390201;28;20217;-86
2022/01/18 17:50:47;;;;;;;21.83;5.07;;;6.10;99.90;;;;;;12384739;28;20085;-86
2022/01/18 17:56:49;;;;;;;17.07;5.47;;;6.00;99.90;;;;;;12383927;28;20418;-86
2022/01/18 18:02:55;;;;;;;16.27;4.95;;;5.90;99.90;;;;;;12383207;28;20065;-85
2022/01/18 18:08:57;;;;;;;17.17;5.43;;;5.90;99.90;;;;;;12379814;28;20129;-85
2022/01/18 18:14:59;;;;;;;15.73;5.22;;;5.90;99.90;;;;;;12386002;28;20125;-85
2022/01/18 18:21:01;;;;;;;19.17;6.30;;;5.90;99.90;;;;;;12392003;28;20046;-86
2022/01/18 18:27:05;;;;;;;16.70;6.22;;;5.90;99.90;;;;;;12387376;28;20046;-85
2022/01/18 18:33:07;;;;;;;20.90;5.45;;;5.80;99.90;;;;;;12389033;28;20141;-86
2022/01/18 18:39:21;;;;;;;16.95;5.38;;;5.80;99.90;;;;;;12387324;28;20054;-86
2022/01/18 18:45:28;;;;;;;17.80;5.32;;;5.80;99.90;;;;;;12391969;28;20050;-85
2022/01/18 18:51:30;;;;;;;16.30;5.25;;;5.80;99.90;;;;;;12401987;28;20049;-86
2022/01/18 18:57:44;;;;;;;11.27;4.72;;;5.80;99.90;;;;;;12385383;28;20240;-86
2022/01/18 19:03:46;;;;;;;15.55;4.55;;;5.80;99.90;;;;;;12380278;28;20056;-86
2022/01/18 19:09:48;;;;;;;18.58;5.68;;;5.80;99.90;;;;;;12396492;28;20400;-85
2022/01/18 19:15:52;;;;;;;17.42;5.80;;;5.80;99.90;;;;;;12395161;28;20082;-86
2022/01/18 19:21:54;;;;;;;18.57;6.00;;;5.80;99.90;;;;;;12400268;28;20125;-86
2022/01/18 19:27:57;;;;;;;18.05;5.18;;;5.80;99.90;;;;;;12377936;28;20042;-85
2022/01/18 19:33:59;;;;;;;23.95;6.03;;;5.70;99.90;;;;;;12378840;28;20733;-85
2022/01/18 19:40:06;;;;;;;19.45;5.25;;;5.70;99.90;;;;;;12385490;28;20053;-86
2022/01/18 19:46:08;;;;;;;16.48;6.60;;;5.70;99.90;;;;;;12379976;28;20049;-85
2022/01/18 19:52:10;;;;;;;19.60;5.45;;;5.60;99.90;;;;;;12378060;28;21006;-86
2022/01/18 19:58:14;;;;;;;15.93;5.93;;;5.70;99.90;;;;;;12379929;28;20064;-86
2022/01/18 20:04:16;;;;;;;18.70;6.13;;;5.60;99.90;;;;;;12380324;28;20631;-86
2022/01/18 20:10:19;;;;;;;20.80;5.97;;;5.60;99.90;;;;;;12391441;28;20092;-85
2022/01/18 20:16:21;;;;;;;20.58;7.70;;;5.50;99.90;;;;;;12378944;28;20064;-86
2022/01/18 20:22:23;;;;;;;18.92;8.23;;;5.60;99.90;;;;;;12383686;28;20653;-85
2022/01/18 20:28:28;;;;;;;24.45;8.80;;;5.60;99.90;;;;;;12394060;28;20045;-85
2022/01/18 20:34:30;;;;;;;;;;;5.70;99.90;;;;;;12391650;28;20133;-86
2022/01/18 20:40:35;;;;;;;25.27;10.07;;;5.70;99.90;;;;;;12379338;28;20017;-86
2022/01/18 20:46:37;;;;;;;25.05;9.38;;;5.70;99.90;;;;;;12398643;28;20508;-86
2022/01/18 20:52:39;;;;;;;27.17;10.85;;;5.70;99.90;;;;;;12395139;28;20146;-85
2022/01/18 20:58:41;;;;;;;23.52;9.68;;;5.60;99.90;;;;;;12396377;28;20569;-85
2022/01/18 21:04:44;;;;;;;23.80;9.70;;;5.50;99.90;;;;;;12388399;28;20062;-86
2022/01/18 21:10:46;;;;;;;24.10;10.13;;;5.60;99.90;;;;;;12380305;28;20921;-85
2022/01/18 21:16:52;;;;;;;25.25;9.60;;;5.60;99.90;;;;;;12396666;28;20112;-86
2022/01/18 21:22:54;;;;;;;22.08;9.38;;;5.50;99.90;;;;;;12391748;28;20046;-86
2022/01/18 21:29:11;;;;;;;23.05;10.05;;;5.50;99.90;;;;;;12385830;28;20050;-86
2022/01/18 21:35:13;;;;;;;24.88;10.13;;;5.50;99.90;;;;;;12387333;28;20046;-85
2022/01/18 21:41:16;;;;;;;28.60;11.27;;;5.50;99.90;;;;;;12387256;28;20086;-85
2022/01/18 21:47:21;;;;;;;27.77;11.60;;;5.60;99.90;;;;;;12391268;28;20062;-86
2022/01/18 21:53:23;;;;;;;27.13;11.73;;;5.60;99.90;;;;;;12390427;28;20084;-85
2022/01/18 21:59:25;;;;;;;26.40;13.27;;;5.50;99.90;;;;;;12402561;28;20062;-86
2022/01/18 22:05:27;;;;;;;30.80;13.85;;;5.60;99.90;;;;;;12399724;28;20137;-85
2022/01/18 22:11:31;;;;;;;;;;;5.60;99.90;;;;;;12386951;28;20046;-86
2022/01/18 22:17:34;;;;;;;26.05;12.35;;;5.70;99.90;;;;;;12382438;28;19925;-85
2022/01/18 22:23:36;;;;;;;27.35;14.27;;;5.60;99.90;;;;;;12390462;28;20049;-86
2022/01/18 22:29:38;;;;;;;30.33;14.32;;;5.70;99.90;;;;;;12385726;28;20096;-85
2022/01/18 22:35:40;;;;;;;34.13;17.08;;;5.60;99.90;;;;;;12399916;28;20069;-86
2022/01/18 22:41:54;;;;;;;42.15;18.88;;;5.60;99.90;;;;;;12389725;28;20126;-85
2022/01/18 22:47:56;;;;;;;39.45;19.42;;;5.60;99.90;;;;;;12384381;28;20061;-86
2022/01/18 22:53:59;;;;;;;37.75;19.30;;;5.50;99.90;;;;;;12388589;28;20046;-85
2022/01/18 23:00:03;;;;;;;40.88;20.00;;;5.50;99.90;;;;;;12383998;28;20796;-86
2022/01/18 23:06:06;;;;;;;45.13;20.23;;;5.50;99.90;;;;;;12398436;28;20081;-86
2022/01/18 23:12:09;;;;;;;41.35;19.67;;;5.40;99.90;;;;;;12387267;28;20082;-87
2022/01/18 23:18:11;;;;;;;44.10;19.67;;;5.40;99.90;;;;;;12392324;28;20075;-85
2022/01/18 23:24:13;;;;;;;44.70;19.33;;;5.40;99.90;;;;;;12388020;28;20070;-85
2022/01/18 23:30:15;;;;;;;40.67;19.70;;;5.30;99.90;;;;;;12379884;28;20053;-86
2022/01/18 23:36:25;;;;;;;39.10;18.00;;;5.30;99.90;;;;;;12378543;28;20080;-85
2022/01/18 23:42:27;;;;;;;41.55;16.88;;;5.30;99.90;;;;;;12378491;28;20066;-87
2022/01/18 23:48:29;;;;;;;36.33;16.10;;;5.20;99.90;;;;;;12385423;28;20730;-86
2022/01/18 23:54:31;;;;;;;41.15;15.90;;;5.10;99.90;;;;;;12392737;28;20071;-86
